createdAt,value
2024-04-21T00:02:04.083Z,149774.16
2024-04-21T00:07:05.963Z,149675.22
2024-04-21T00:12:08.134Z,149653.41
2024-04-21T00:17:10.026Z,149629.00
2024-04-21T00:22:12.554Z,149613.56
2024-04-21T00:27:14.389Z,149645.69
2024-04-21T00:32:16.315Z,149631.56
2024-04-21T00:37:18.242Z,149675.22
2024-04-21T00:42:20.162Z,149703.47
2024-04-21T00:47:22.016Z,149729.19
2024-04-21T00:52:24.043Z,149682.97
2024-04-21T00:57:25.885Z,149717.63
2024-04-21T01:02:27.753Z,149675.22
2024-04-21T01:07:29.663Z,149653.41
2024-04-21T01:12:38.828Z,149608.44
2024-04-21T01:17:40.859Z,149620.00
2024-04-21T01:22:49.967Z,149608.44
2024-04-21T01:27:51.804Z,149559.66
2024-04-21T01:32:53.866Z,149512.13
2024-04-21T01:37:56.190Z,149507.03
2024-04-21T01:42:58.074Z,149487.75
2024-04-21T01:47:59.980Z,149465.94
2024-04-21T01:53:01.874Z,149472.38
2024-04-21T01:58:03.983Z,149483.91
2024-04-21T02:03:05.907Z,149473.66
2024-04-21T02:08:08.356Z,149508.28
2024-04-21T02:13:10.261Z,149476.19
2024-04-21T02:18:12.093Z,149480.03
2024-04-21T02:23:13.905Z,149442.81
2024-04-21T02:28:15.793Z,149471.09
2024-04-21T02:33:17.866Z,149473.66
2024-04-21T02:38:20.038Z,149482.63
2024-04-21T02:43:21.896Z,149444.09
2024-04-21T02:48:23.819Z,149458.22
2024-04-21T02:53:25.687Z,149422.28
2024-04-21T02:58:27.484Z,149405.63
2024-04-21T03:03:29.389Z,149406.91
2024-04-21T03:08:31.190Z,149412.00
2024-04-21T03:13:34.530Z,149427.44
2024-04-21T03:18:36.642Z,149430.00
2024-04-21T03:23:38.465Z,149400.47
2024-04-21T03:28:40.425Z,149408.19
2024-04-21T03:33:42.305Z,149396.63
2024-04-21T03:38:44.148Z,149428.72
2024-04-21T03:43:47.705Z,149408.19
2024-04-21T03:48:49.561Z,149374.81
2024-04-21T03:53:51.395Z,149362.00
2024-04-21T03:58:53.230Z,149368.38
2024-04-21T04:03:55.242Z,149397.91
2024-04-21T04:08:57.394Z,149378.66
2024-04-21T04:13:59.283Z,149337.63
2024-04-21T04:19:01.491Z,149336.34
2024-04-21T04:24:03.429Z,149341.44
2024-04-21T04:29:05.886Z,149338.91
2024-04-21T04:34:07.692Z,149377.38
2024-04-21T04:39:10.367Z,149444.09
2024-04-21T04:44:12.299Z,149477.47
2024-04-21T04:49:14.193Z,149496.75
2024-04-21T04:54:16.134Z,149531.41
2024-04-21T04:59:17.901Z,149456.94
2024-04-21T05:04:19.861Z,149498.03
2024-04-21T05:09:21.970Z,149587.91
2024-04-21T05:14:23.738Z,149581.50
2024-04-21T05:19:25.584Z,149632.84
2024-04-21T05:24:27.415Z,149644.41
2024-04-21T05:29:29.746Z,149639.28
2024-04-21T05:34:31.680Z,149663.69
2024-04-21T05:39:33.494Z,149688.06
2024-04-21T05:44:35.492Z,149643.13
2024-04-21T05:49:37.309Z,149708.63
2024-04-21T05:54:39.211Z,149725.31
2024-04-21T05:59:41.496Z,149789.56
2024-04-21T06:04:43.436Z,149806.28
2024-04-21T06:09:47.459Z,149879.53
2024-04-21T06:14:49.653Z,150046.66
2024-04-21T06:19:51.489Z,150085.28
2024-04-21T06:24:53.424Z,150109.69
2024-04-21T06:29:55.313Z,150098.13
2024-04-21T06:34:57.124Z,150074.97
2024-04-21T06:39:59.018Z,150086.56
2024-04-21T06:45:00.930Z,150071.09
2024-04-21T06:50:02.977Z,149973.41
2024-04-21T06:55:05.453Z,150001.66
2024-04-21T07:00:07.807Z,150091.66
2024-04-21T07:05:10.565Z,150166.34
2024-04-21T07:10:12.464Z,150176.66
2024-04-21T07:15:14.394Z,150107.13
2024-04-21T07:20:16.842Z,150212.66
2024-04-21T07:25:24.326Z,150157.34
2024-04-21T07:30:27.675Z,150129.00
2024-04-21T07:35:29.546Z,150166.34
2024-04-21T07:40:31.627Z,150202.34
2024-04-21T07:45:33.545Z,150149.56
2024-04-21T07:50:35.699Z,150054.38
2024-04-21T07:55:37.538Z,150049.22
2024-04-21T08:00:40.134Z,150040.25
2024-04-21T08:05:42.004Z,150065.97
2024-04-21T08:10:50.777Z,150104.53
2024-04-21T08:16:00.007Z,150185.66
2024-04-21T08:21:01.890Z,150189.50
2024-04-21T08:26:04.934Z,150235.81
2024-04-21T08:31:06.960Z,150331.06
2024-04-21T08:36:08.978Z,150268.00
2024-04-21T08:41:17.330Z,150373.56
2024-04-21T08:46:21.426Z,150364.53
2024-04-21T08:51:24.590Z,150291.16
2024-04-21T08:56:31.118Z,150287.31
2024-04-21T09:01:33.574Z,150225.53
2024-04-21T09:06:37.561Z,150186.94
2024-04-21T09:11:40.646Z,150166.34
2024-04-21T09:16:42.496Z,150249.97
2024-04-21T09:21:44.339Z,150319.50
2024-04-21T09:26:47.564Z,150560.25
2024-04-21T09:31:49.506Z,150796.09
2024-04-21T09:36:52.685Z,150510.03
2024-04-21T09:41:56.369Z,150331.06
2024-04-21T09:46:59.169Z,150226.81
2024-04-21T09:52:04.631Z,150282.13
2024-04-21T09:57:12.206Z,150302.75
2024-04-21T10:02:23.468Z,150696.81
2024-04-21T10:07:26.145Z,150778.09
2024-04-21T10:12:28.495Z,150860.59
2024-04-21T10:17:30.383Z,150756.13
2024-04-21T10:22:33.258Z,150627.25
2024-04-21T10:27:35.202Z,150466.25
2024-04-21T10:32:37.169Z,150454.66
2024-04-21T10:37:39.665Z,150405.72
2024-04-21T10:42:41.962Z,150405.72
2024-04-21T10:47:43.937Z,150547.38
2024-04-21T10:52:46.444Z,150843.84
2024-04-21T10:57:48.547Z,150843.84
2024-04-21T11:02:50.620Z,150958.59
2024-04-21T11:07:54.123Z,150778.09
2024-04-21T11:12:57.635Z,150618.22
2024-04-21T11:18:00.633Z,150619.53
2024-04-21T11:23:03.413Z,150558.97
2024-04-21T11:28:12.158Z,150673.63
2024-04-21T11:33:14.089Z,150821.94
2024-04-21T11:38:16.531Z,151023.09
2024-04-21T11:43:22.652Z,150873.47
2024-04-21T11:48:24.846Z,150818.03
2024-04-21T11:53:28.177Z,150711.03
2024-04-21T11:58:33.464Z,150717.44
2024-04-21T12:03:35.611Z,150731.66
2024-04-21T12:08:37.636Z,150921.22
2024-04-21T12:13:40.566Z,151057.94
2024-04-21T12:18:43.840Z,151135.34
2024-04-21T12:23:46.134Z,151026.94
2024-04-21T12:28:48.218Z,150756.13
2024-04-21T12:33:50.308Z,150748.38
2024-04-21T12:38:52.364Z,150753.56
2024-04-21T12:43:54.455Z,150763.84
2024-04-21T12:48:58.787Z,150601.50
2024-04-21T12:54:00.957Z,150573.13
2024-04-21T12:59:03.159Z,150646.59
2024-04-21T13:04:07.206Z,150653.03
2024-04-21T13:09:09.328Z,150789.69
2024-04-21T13:14:11.265Z,150899.28
2024-04-21T13:19:13.339Z,150687.84
2024-04-21T13:24:15.435Z,150837.38
2024-04-21T13:29:17.929Z,151012.78
2024-04-21T13:34:19.911Z,150883.78
2024-04-21T13:39:22.518Z,150734.22
2024-04-21T13:44:24.631Z,150779.38
2024-04-21T13:49:26.678Z,150763.84
2024-04-21T13:54:28.870Z,150644.00
2024-04-21T13:59:31.430Z,150660.75
2024-04-21T14:04:33.630Z,150716.16
2024-04-21T14:09:35.688Z,150633.72
2024-04-21T14:14:37.682Z,150577.03
2024-04-21T14:19:39.913Z,150549.94
2024-04-21T14:24:41.821Z,150506.16
2024-04-21T14:29:46.520Z,150494.56
2024-04-21T14:34:50.947Z,150549.94
2024-04-21T14:39:54.838Z,150615.66
2024-04-21T14:45:04.981Z,150546.09
2024-04-21T14:50:07.466Z,150565.44
2024-04-21T14:55:09.417Z,150614.38
2024-04-21T15:00:13.461Z,150553.84
2024-04-21T15:05:15.587Z,150575.75
2024-04-21T15:10:18.218Z,150553.84
2024-04-21T15:15:20.703Z,150565.44
2024-04-21T15:20:22.854Z,150562.81
2024-04-21T15:25:25.025Z,150547.38
2024-04-21T15:30:29.123Z,150450.78
2024-04-21T15:35:31.685Z,150443.09
2024-04-21T15:40:33.766Z,150477.84
2024-04-21T15:45:35.753Z,150542.25
2024-04-21T15:50:38.647Z,150539.63
2024-04-21T15:55:40.476Z,150534.50
2024-04-21T16:00:44.743Z,150558.97
2024-04-21T16:05:47.492Z,150519.06
2024-04-21T16:10:49.546Z,150472.66
2024-04-21T16:15:51.544Z,150431.50
2024-04-21T16:20:53.405Z,150431.50
2024-04-21T16:25:55.222Z,150373.56
2024-04-21T16:30:57.217Z,150356.81
2024-04-21T16:36:00.950Z,150360.66
2024-04-21T16:41:03.039Z,150311.75
2024-04-21T16:46:07.415Z,150323.34
2024-04-21T16:51:09.897Z,150325.91
2024-04-21T16:56:14.312Z,150320.78
2024-04-21T17:01:16.558Z,150265.44
2024-04-21T17:06:20.474Z,150327.19
2024-04-21T17:11:22.897Z,150323.34
2024-04-21T17:16:25.023Z,150293.72
2024-04-21T17:21:27.005Z,150274.44
2024-04-21T17:26:28.950Z,150273.16
2024-04-21T17:31:31.266Z,150295.03
2024-04-21T17:36:33.440Z,150257.69
2024-04-21T17:41:35.765Z,150233.25
2024-04-21T17:46:39.045Z,150235.81
2024-04-21T17:51:40.975Z,150199.81
2024-04-21T17:56:45.517Z,150186.94
2024-04-21T18:01:47.423Z,150132.84
2024-04-21T18:06:49.316Z,150100.69
2024-04-21T18:11:51.131Z,150116.09
2024-04-21T18:16:53.194Z,150069.81
2024-04-21T18:21:57.443Z,150140.59
2024-04-21T18:26:59.343Z,150085.28
2024-04-21T18:32:01.203Z,150107.13
2024-04-21T18:37:03.614Z,150053.13
2024-04-21T18:42:06.344Z,150058.22
2024-04-21T18:47:08.653Z,150078.81
2024-04-21T18:52:13.828Z,150065.97
2024-04-21T18:57:15.755Z,150055.66
2024-04-21T19:02:17.681Z,150026.06
2024-04-21T19:07:19.719Z,150008.09
2024-04-21T19:12:22.137Z,149983.69
2024-04-21T19:17:24.435Z,149975.94
2024-04-21T19:22:26.771Z,149954.09
2024-04-21T19:27:28.771Z,149915.53
2024-04-21T19:32:30.824Z,149929.69
2024-04-21T19:37:33.064Z,149865.41
2024-04-21T19:42:35.211Z,149821.69
2024-04-21T19:47:37.269Z,149793.44
2024-04-21T19:52:41.851Z,149815.28
2024-04-21T19:57:43.774Z,149833.25
2024-04-21T20:02:45.869Z,149781.88
2024-04-21T20:07:47.956Z,149736.88
2024-04-21T20:12:50.874Z,149763.88
2024-04-21T20:18:11.520Z,149722.75
2024-04-21T20:23:13.588Z,149742.03
2024-04-21T20:28:15.534Z,149751.03
2024-04-21T20:33:17.454Z,149770.28
2024-04-21T20:38:19.447Z,149726.63
2024-04-21T20:43:21.740Z,149679.06
2024-04-21T20:48:23.774Z,149711.19
2024-04-21T20:53:25.718Z,149704.78
2024-04-21T20:58:37.949Z,149682.97
2024-04-21T21:03:47.523Z,149729.19
2024-04-21T21:08:49.492Z,149731.75
2024-04-21T21:13:51.279Z,149753.59
2024-04-21T21:18:53.084Z,149762.59
2024-04-21T21:23:54.965Z,149708.63
2024-04-21T21:28:56.773Z,149751.03
2024-04-21T21:33:58.571Z,149679.06
2024-04-21T21:39:02.565Z,149713.75
2024-04-21T21:44:04.504Z,149695.78
2024-04-21T21:49:06.349Z,149684.22
2024-04-21T21:54:08.188Z,149700.91
2024-04-21T21:59:10.071Z,149655.97
2024-04-21T22:04:12.682Z,149625.13
2024-04-21T22:09:14.565Z,149621.28
2024-04-21T22:14:16.413Z,149580.19
2024-04-21T22:19:18.303Z,149603.34
2024-04-21T22:24:20.146Z,149551.94
2024-04-21T22:29:22.016Z,149533.97
2024-04-21T22:34:23.878Z,149548.13
2024-04-21T22:39:25.770Z,149593.06
2024-04-21T22:44:28.435Z,149510.84
2024-04-21T22:49:30.334Z,149480.03
2024-04-21T22:54:32.222Z,149483.91
2024-04-21T22:59:34.214Z,149453.09
2024-04-21T23:04:36.131Z,149418.44
2024-04-21T23:09:38.076Z,149451.81
2024-04-21T23:14:39.831Z,149412.00
2024-04-21T23:19:41.674Z,149359.44
2024-04-21T23:24:43.614Z,149332.47
2024-04-21T23:29:45.455Z,149309.38
2024-04-21T23:34:47.354Z,149269.63
2024-04-21T23:39:49.189Z,149328.63
2024-04-21T23:44:50.985Z,149341.44
2024-04-21T23:49:52.987Z,149386.38
2024-04-21T23:54:54.763Z,149355.56
2024-04-21T23:59:56.859Z,149337.63
